Terminal Aerodrome Forecast
Issued by NWS

Home | Current Version | Previous Version | Text Only | Print | Product List | Glossary Off
Versions: 1 2 3 4 5 6 7 8 9 10 11 12 13 14 15 16

000
FTUS41 KCLE 241100
TAFFDY
TAF
KFDY 241126Z 2412/2512 21015G25KT P6SM VCSH SCT008 OVC035
      TEMPO 2412/2416 VRB30G45KT 5SM -TSRA BR OVC025CB
     FM241600 24028G40KT P6SM OVC015
      TEMPO 2416/2418 3SM -SHRA
     FM242300 24022G30KT P6SM OVC025
     FM250600 24015G25KT P6SM OVC035=

USA.gov is the U.S. government's official web portal to all federal, state and local government web resources and services.